createdAt,value
2017-02-27T00:00:20.264Z,0
2017-02-27T00:01:20.302Z,0
2017-02-27T00:02:20.262Z,0
2017-02-27T00:03:20.246Z,0
2017-02-27T00:04:20.234Z,0
2017-02-27T00:05:20.242Z,0
2017-02-27T00:06:19.843Z,0
2017-02-27T00:07:20.255Z,0
2017-02-27T00:08:20.220Z,0
2017-02-27T00:09:20.236Z,0
2017-02-27T00:10:20.184Z,0
2017-02-27T00:11:20.177Z,0
2017-02-27T00:12:20.172Z,0
2017-02-27T00:13:19.796Z,0
2017-02-27T00:14:20.160Z,0
2017-02-27T00:15:20.152Z,0
2017-02-27T00:16:20.138Z,0
2017-02-27T00:17:20.147Z,0
2017-02-27T00:18:20.173Z,0
2017-02-27T00:19:20.388Z,0
2017-02-27T00:20:20.125Z,0
2017-02-27T00:21:19.717Z,0
2017-02-27T00:22:20.091Z,0
2017-02-27T00:23:20.092Z,0
2017-02-27T00:24:20.084Z,0
2017-02-27T00:25:20.076Z,0
2017-02-27T00:26:19.692Z,0
2017-02-27T00:27:20.089Z,0
2017-02-27T00:28:19.686Z,0
2017-02-27T00:29:20.049Z,0
2017-02-27T00:30:20.036Z,0
2017-02-27T00:31:20.032Z,0
2017-02-27T00:32:20.022Z,0
2017-02-27T00:33:20.010Z,0
2017-02-27T00:34:19.998Z,0
2017-02-27T00:35:20.020Z,0
2017-02-27T00:36:19.974Z,0
2017-02-27T00:37:19.980Z,0
2017-02-27T00:38:19.968Z,0
2017-02-27T00:39:19.967Z,0
2017-02-27T00:40:19.984Z,0
2017-02-27T00:41:19.564Z,0
2017-02-27T00:42:19.927Z,0
2017-02-27T00:43:19.941Z,0
2017-02-27T00:44:19.924Z,0
2017-02-27T00:45:19.908Z,0
2017-02-27T00:46:19.508Z,0
2017-02-27T00:47:19.514Z,0
2017-02-27T00:48:19.523Z,0
2017-02-27T00:49:19.877Z,0
2017-02-27T00:50:19.873Z,0
2017-02-27T00:51:19.889Z,0
2017-02-27T00:52:19.850Z,0
2017-02-27T00:53:19.861Z,0
2017-02-27T00:54:19.446Z,0
2017-02-27T00:55:19.819Z,0
2017-02-27T00:56:19.813Z,0
2017-02-27T00:57:19.836Z,0
2017-02-27T00:58:19.794Z,0
2017-02-27T00:59:19.805Z,0
2017-02-27T01:00:19.788Z,0
2017-02-27T01:01:19.785Z,0
2017-02-27T01:02:19.827Z,0
2017-02-27T01:03:19.391Z,0
2017-02-27T01:04:19.372Z,0
2017-02-27T01:05:19.794Z,0
2017-02-27T01:06:19.764Z,0
2017-02-27T01:07:19.740Z,0
2017-02-27T01:08:19.760Z,0
2017-02-27T01:09:19.726Z,0
2017-02-27T01:10:19.719Z,0
2017-02-27T01:11:19.713Z,0
2017-02-27T01:12:18.926Z,0
2017-02-27T01:13:19.691Z,0
2017-02-27T01:14:19.680Z,0
2017-02-27T01:15:19.686Z,0
2017-02-27T01:16:19.279Z,0
2017-02-27T01:17:19.652Z,0
2017-02-27T01:18:19.661Z,0
2017-02-27T01:19:19.539Z,0
2017-02-27T01:20:19.626Z,0
2017-02-27T01:21:19.228Z,0
2017-02-27T01:22:19.616Z,0
2017-02-27T01:23:19.646Z,0
2017-02-27T01:24:19.220Z,0
2017-02-27T01:25:19.595Z,0
2017-02-27T01:26:19.593Z,0
2017-02-27T01:27:19.569Z,0
2017-02-27T01:28:19.166Z,0
2017-02-27T01:29:19.180Z,0
2017-02-27T01:30:19.553Z,0
2017-02-27T01:31:19.558Z,0
2017-02-27T01:32:19.154Z,0
2017-02-27T01:33:19.538Z,0
2017-02-27T01:34:19.128Z,0
2017-02-27T01:52:51.335Z,0
2017-02-27T01:53:47.224Z,0
2017-02-27T01:54:46.814Z,0
2017-02-27T01:55:47.210Z,0
2017-02-27T01:56:47.187Z,0
2017-02-27T01:57:47.179Z,0
2017-02-27T01:58:47.169Z,0
2017-02-27T01:59:47.167Z,0
2017-02-27T02:00:47.171Z,0
2017-02-27T02:01:46.769Z,0
2017-02-27T02:02:46.753Z,0
2017-02-27T02:03:47.132Z,0
2017-02-27T02:04:46.775Z,0
2017-02-27T02:05:47.131Z,0
2017-02-27T02:06:47.109Z,0
2017-02-27T02:07:47.113Z,0
2017-02-27T02:08:47.104Z,0
2017-02-27T02:09:47.088Z,0
2017-02-27T02:10:47.085Z,0
2017-02-27T02:11:47.069Z,0
2017-02-27T02:12:47.101Z,0
2017-02-27T02:13:47.106Z,0
2017-02-27T02:14:47.067Z,0
2017-02-27T02:15:47.078Z,0
2017-02-27T02:16:47.280Z,0
2017-02-27T02:17:47.067Z,0
2017-02-27T02:18:47.012Z,0
2017-02-27T02:19:47.009Z,0
2017-02-27T02:20:47.007Z,0
2017-02-27T02:21:46.994Z,0
2017-02-27T02:22:46.979Z,0
2017-02-27T02:23:46.973Z,0
2017-02-27T02:24:46.979Z,0
2017-02-27T02:25:46.961Z,0
2017-02-27T02:26:46.954Z,0
2017-02-27T02:27:46.939Z,0
2017-02-27T02:28:46.937Z,0
2017-02-27T02:29:46.933Z,0
2017-02-27T02:30:46.915Z,0
2017-02-27T02:31:46.924Z,0
2017-02-27T02:32:46.903Z,0
2017-02-27T02:33:46.906Z,0
2017-02-27T02:34:46.893Z,0
2017-02-27T02:35:46.875Z,0
2017-02-27T02:36:46.889Z,0
2017-02-27T02:37:46.858Z,0
2017-02-27T02:38:46.857Z,0
2017-02-27T02:39:46.861Z,0
2017-02-27T02:40:46.861Z,0
2017-02-27T02:41:46.848Z,0
2017-02-27T02:42:46.843Z,0
2017-02-27T02:43:46.829Z,0
2017-02-27T02:44:46.813Z,0
2017-02-27T02:45:46.790Z,0
2017-02-27T02:46:46.784Z,0
2017-02-27T02:47:46.788Z,0
2017-02-27T02:48:46.381Z,0
2017-02-27T02:49:46.801Z,0
2017-02-27T02:50:46.747Z,0
2017-02-27T02:51:46.755Z,0
2017-02-27T02:52:46.732Z,0
2017-02-27T02:53:46.360Z,0
2017-02-27T02:54:46.340Z,0
2017-02-27T02:55:46.717Z,0
2017-02-27T02:56:46.355Z,0
2017-02-27T02:57:46.695Z,0
2017-02-27T02:58:46.701Z,0
2017-02-27T02:59:46.339Z,0
2017-02-27T03:00:46.697Z,0
2017-02-27T03:01:46.667Z,0
2017-02-27T03:02:46.656Z,0
2017-02-27T03:03:46.272Z,0
2017-02-27T03:04:46.670Z,0
2017-02-27T03:05:46.630Z,0
2017-02-27T03:06:46.623Z,0
2017-02-27T03:07:46.609Z,0
2017-02-27T03:08:46.612Z,0
2017-02-27T03:09:46.629Z,0
2017-02-27T03:10:46.597Z,0
2017-02-27T03:11:46.606Z,0
2017-02-27T03:12:46.568Z,0
2017-02-27T03:13:46.559Z,0
2017-02-27T03:14:46.560Z,0
2017-02-27T03:15:46.167Z,0
2017-02-27T03:16:46.164Z,0
2017-02-27T03:17:46.545Z,0
2017-02-27T03:18:46.554Z,0
2017-02-27T03:19:46.540Z,0
2017-02-27T03:20:46.533Z,0
2017-02-27T03:21:46.511Z,0
2017-02-27T03:22:46.492Z,0
2017-02-27T03:23:46.475Z,0
2017-02-27T03:24:46.499Z,0
2017-02-27T03:25:45.684Z,0
2017-02-27T03:26:46.451Z,0
2017-02-27T03:27:46.479Z,0
2017-02-27T03:28:46.458Z,0
2017-02-27T03:29:46.443Z,0
2017-02-27T03:30:46.410Z,0
2017-02-27T03:31:46.430Z,0
2017-02-27T03:32:46.402Z,0
2017-02-27T03:33:46.015Z,0
2017-02-27T03:34:46.387Z,0
2017-02-27T03:35:46.411Z,0
2017-02-27T03:36:45.988Z,0
2017-02-27T03:37:46.003Z,0
2017-02-27T03:38:45.995Z,0
2017-02-27T03:39:46.339Z,0
2017-02-27T03:40:45.937Z,0
2017-02-27T03:41:46.327Z,0
2017-02-27T03:42:45.922Z,0
2017-02-27T03:43:46.342Z,0
2017-02-27T03:44:45.910Z,0
2017-02-27T03:45:45.902Z,0
2017-02-27T03:46:46.542Z,0
2017-02-27T03:47:46.276Z,0
2017-02-27T03:48:46.277Z,0
2017-02-27T03:49:46.252Z,0
2017-02-27T03:50:46.249Z,0
2017-02-27T03:51:46.274Z,0
2017-02-27T03:52:46.227Z,0
2017-02-27T03:53:46.235Z,0
2017-02-27T03:54:46.211Z,0
2017-02-27T03:55:46.221Z,0
2017-02-27T03:56:46.205Z,0
2017-02-27T03:57:46.186Z,0
2017-02-27T03:58:46.171Z,0
2017-02-27T03:59:46.174Z,0
2017-02-27T04:00:46.174Z,0
2017-02-27T04:01:46.152Z,0
2017-02-27T04:02:46.147Z,0
2017-02-27T04:03:46.125Z,0
2017-02-27T04:04:46.143Z,0
2017-02-27T04:05:46.110Z,0
2017-02-27T04:06:46.102Z,0
2017-02-27T04:07:46.090Z,0
2017-02-27T04:08:45.692Z,0
2017-02-27T04:09:46.080Z,0
2017-02-27T04:10:46.093Z,0
2017-02-27T04:11:46.075Z,0
2017-02-27T04:12:46.065Z,0
2017-02-27T04:13:46.034Z,0
2017-02-27T04:14:46.029Z,0
2017-02-27T04:15:46.039Z,0
2017-02-27T04:16:46.006Z,0
2017-02-27T04:17:46.014Z,0
2017-02-27T04:18:45.991Z,0
2017-02-27T04:19:45.999Z,0
2017-02-27T04:20:45.982Z,0
2017-02-27T04:21:45.964Z,0
2017-02-27T04:22:45.985Z,0
2017-02-27T04:23:45.966Z,0
2017-02-27T04:24:45.960Z,0
2017-02-27T04:25:45.945Z,0
2017-02-27T04:26:45.917Z,0
2017-02-27T04:27:45.915Z,0
2017-02-27T04:28:45.526Z,0
2017-02-27T04:29:45.517Z,0
2017-02-27T04:30:45.909Z,0
2017-02-27T04:31:45.874Z,0
2017-02-27T04:32:45.868Z,0
2017-02-27T04:33:45.884Z,0
2017-02-27T04:34:45.868Z,0
2017-02-27T04:35:45.845Z,0
2017-02-27T04:36:45.826Z,0
2017-02-27T04:37:45.829Z,0
2017-02-27T04:38:45.816Z,0
2017-02-27T04:39:45.807Z,0
2017-02-27T04:40:45.805Z,0
2017-02-27T04:41:45.794Z,0
2017-02-27T04:42:45.787Z,0
2017-02-27T04:43:45.768Z,0
2017-02-27T04:44:45.763Z,0
2017-02-27T04:45:45.774Z,0
2017-02-27T04:46:45.752Z,0
2017-02-27T04:47:45.727Z,0
2017-02-27T04:48:45.755Z,0
2017-02-27T04:49:45.713Z,0
2017-02-27T04:50:45.711Z,0
2017-02-27T04:51:45.699Z,0
2017-02-27T04:52:45.688Z,0
2017-02-27T04:53:45.682Z,0
2017-02-27T04:54:45.665Z,0
2017-02-27T04:55:45.685Z,0
2017-02-27T04:56:45.663Z,0
2017-02-27T04:57:45.649Z,0
2017-02-27T04:58:45.651Z,0
2017-02-27T04:59:45.649Z,0
2017-02-27T05:00:45.615Z,0
2017-02-27T05:01:45.608Z,0
2017-02-27T05:02:45.610Z,0
2017-02-27T05:03:45.614Z,0
2017-02-27T05:04:45.580Z,0
2017-02-27T05:05:45.580Z,0
2017-02-27T05:06:45.561Z,0
2017-02-27T05:07:45.575Z,0
2017-02-27T05:08:45.544Z,0
2017-02-27T05:09:45.164Z,0
2017-02-27T05:10:45.525Z,0
2017-02-27T05:11:45.516Z,0
2017-02-27T05:12:45.525Z,0
2017-02-27T05:13:45.111Z,0
2017-02-27T05:14:45.119Z,0
2017-02-27T05:15:45.481Z,0
2017-02-27T05:16:45.516Z,0
2017-02-27T05:17:45.477Z,0
2017-02-27T05:18:45.451Z,0
2017-02-27T05:19:45.461Z,0
2017-02-27T05:20:45.445Z,0
2017-02-27T05:21:45.429Z,0
2017-02-27T05:22:45.451Z,0
2017-02-27T05:23:45.456Z,0
2017-02-27T05:24:45.435Z,0
2017-02-27T05:25:45.403Z,0
2017-02-27T05:26:45.398Z,0
2017-02-27T05:27:45.383Z,0
2017-02-27T05:28:45.372Z,0
2017-02-27T05:29:45.382Z,0
2017-02-27T05:30:45.359Z,0
2017-02-27T05:31:45.339Z,0
2017-02-27T05:32:44.948Z,0
2017-02-27T05:33:45.338Z,0
2017-02-27T05:34:45.307Z,0
2017-02-27T05:35:44.931Z,0
2017-02-27T05:36:45.307Z,0
2017-02-27T05:37:45.315Z,0
2017-02-27T05:38:45.288Z,0
2017-02-27T05:39:45.263Z,0
2017-02-27T05:40:45.279Z,0
2017-02-27T05:41:45.262Z,0
2017-02-27T05:42:45.257Z,0
2017-02-27T05:43:45.254Z,0
2017-02-27T05:44:45.225Z,0
2017-02-27T05:45:45.223Z,0
2017-02-27T05:46:45.201Z,5
2017-02-27T05:47:45.205Z,5
2017-02-27T05:48:44.808Z,5
2017-02-27T05:49:45.187Z,5
2017-02-27T05:50:45.208Z,5
2017-02-27T05:51:44.782Z,5
2017-02-27T05:52:45.176Z,5
2017-02-27T05:53:45.179Z,5
2017-02-27T05:54:45.132Z,10
2017-02-27T05:55:45.140Z,10
2017-02-27T05:56:44.729Z,10
2017-02-27T05:57:45.113Z,10
2017-02-27T05:58:45.095Z,15
2017-02-27T05:59:44.713Z,15
2017-02-27T06:00:45.086Z,15
2017-02-27T06:01:45.105Z,15
2017-02-27T06:02:45.071Z,20
2017-02-27T06:03:45.044Z,20
2017-02-27T06:04:45.058Z,20
2017-02-27T06:05:45.040Z,25
2017-02-27T06:06:45.040Z,25
2017-02-27T06:07:45.016Z,25
2017-02-27T06:08:45.011Z,25
2017-02-27T06:09:45.006Z,30
2017-02-27T06:10:44.993Z,30
2017-02-27T06:11:45.018Z,30
2017-02-27T06:12:45.007Z,30
2017-02-27T06:13:44.961Z,30
2017-02-27T06:14:44.949Z,30
2017-02-27T06:15:44.955Z,35
2017-02-27T06:16:44.948Z,35
2017-02-27T06:17:44.945Z,35
2017-02-27T06:18:44.909Z,35
2017-02-27T06:19:44.899Z,35
2017-02-27T06:20:44.511Z,40
2017-02-27T06:21:44.920Z,45
2017-02-27T06:22:44.873Z,45
2017-02-27T06:23:44.869Z,50
2017-02-27T06:24:44.861Z,50
2017-02-27T06:25:44.845Z,55
2017-02-27T06:26:44.469Z,55
2017-02-27T06:27:44.879Z,60
2017-02-27T06:28:44.458Z,60
2017-02-27T06:29:44.436Z,60
2017-02-27T06:30:44.419Z,60
2017-02-27T06:31:44.423Z,60
2017-02-27T06:32:44.411Z,60
2017-02-27T06:33:44.397Z,65
2017-02-27T06:34:44.781Z,65
2017-02-27T06:35:44.759Z,70
2017-02-27T06:36:44.784Z,70
2017-02-27T06:37:44.753Z,75
2017-02-27T06:38:44.736Z,70
2017-02-27T06:39:44.740Z,75
2017-02-27T06:40:44.760Z,75
2017-02-27T06:41:44.710Z,80
2017-02-27T06:42:44.704Z,85
2017-02-27T06:43:44.691Z,90
2017-02-27T06:44:44.701Z,90
2017-02-27T06:45:44.706Z,90
2017-02-27T06:46:44.684Z,90
2017-02-27T06:47:44.694Z,90
2017-02-27T06:48:44.695Z,95
2017-02-27T06:49:44.641Z,100
2017-02-27T06:50:44.689Z,105
2017-02-27T06:51:44.651Z,105
2017-02-27T06:52:44.628Z,110
2017-02-27T06:53:44.670Z,115
2017-02-27T06:54:44.625Z,110
2017-02-27T06:55:44.601Z,115
2017-02-27T06:56:44.582Z,110
2017-02-27T06:57:43.819Z,100
2017-02-27T06:58:44.580Z,105
2017-02-27T06:59:44.175Z,95
2017-02-27T07:00:44.570Z,90
2017-02-27T07:01:44.549Z,90
2017-02-27T07:02:44.547Z,90
2017-02-27T07:03:44.572Z,90
2017-02-27T07:04:44.525Z,95
2017-02-27T07:05:44.516Z,105
2017-02-27T07:06:44.500Z,105
2017-02-27T07:07:44.515Z,115
2017-02-27T07:08:44.139Z,120
2017-02-27T07:09:44.492Z,130
2017-02-27T07:10:44.469Z,135
2017-02-27T07:11:44.479Z,140
2017-02-27T07:12:44.448Z,130
2017-02-27T07:13:44.450Z,120
2017-02-27T07:14:44.454Z,110
2017-02-27T07:15:44.056Z,110
2017-02-27T07:16:44.444Z,105
2017-02-27T07:17:44.413Z,95
2017-02-27T07:18:44.413Z,90
2017-02-27T07:19:44.406Z,90
2017-02-27T07:20:44.000Z,90
2017-02-27T07:21:44.409Z,90
2017-02-27T07:22:43.997Z,90
2017-02-27T07:23:44.404Z,85
2017-02-27T07:24:43.991Z,80
2017-02-27T07:25:44.347Z,85
2017-02-27T07:26:44.340Z,95
2017-02-27T07:27:44.330Z,105
2017-02-27T07:28:43.968Z,115
2017-02-27T07:29:44.322Z,125
2017-02-27T07:30:43.928Z,135
2017-02-27T07:31:44.313Z,130
2017-02-27T07:32:44.332Z,130
2017-02-27T07:33:44.298Z,135
2017-02-27T07:34:43.912Z,140
2017-02-27T07:35:44.288Z,140
2017-02-27T07:36:43.872Z,160
2017-02-27T07:37:44.291Z,175
2017-02-27T07:38:44.248Z,170
2017-02-27T07:39:44.243Z,165
2017-02-27T07:40:44.240Z,165
2017-02-27T07:41:43.853Z,175
2017-02-27T07:42:43.825Z,175
2017-02-27T07:43:43.820Z,180
2017-02-27T07:44:43.823Z,185
2017-02-27T07:45:44.189Z,190
2017-02-27T07:46:43.810Z,200
2017-02-27T07:47:44.193Z,215
2017-02-27T07:48:43.790Z,215
2017-02-27T07:49:44.165Z,230
2017-02-27T07:50:44.153Z,230
2017-02-27T07:51:44.166Z,240
2017-02-27T07:52:44.152Z,235
2017-02-27T07:53:44.155Z,215
2017-02-27T07:54:44.143Z,210
2017-02-27T07:55:44.117Z,210
2017-02-27T07:56:44.110Z,205
2017-02-27T07:57:44.122Z,215
2017-02-27T07:58:44.112Z,235
2017-02-27T07:59:44.101Z,250
2017-02-27T08:00:44.131Z,260
2017-02-27T08:01:44.112Z,245
2017-02-27T08:02:44.089Z,245
2017-02-27T08:03:44.061Z,245
2017-02-27T08:04:44.072Z,245
2017-02-27T08:05:44.066Z,250
2017-02-27T08:06:44.040Z,250
2017-02-27T08:07:44.039Z,270
2017-02-27T08:08:44.028Z,275
2017-02-27T08:09:44.032Z,275
2017-02-27T08:10:44.014Z,275
2017-02-27T08:11:44.062Z,265
2017-02-27T08:12:44.025Z,265
2017-02-27T08:13:44.004Z,260
2017-02-27T08:14:44.005Z,255
2017-02-27T08:15:44.031Z,250
2017-02-27T08:16:44.012Z,250
2017-02-27T08:17:43.965Z,250
2017-02-27T08:18:43.993Z,245
2017-02-27T08:19:43.954Z,245
2017-02-27T08:20:43.952Z,245
2017-02-27T08:21:43.990Z,245
2017-02-27T08:22:43.958Z,240
2017-02-27T08:23:43.930Z,240
2017-02-27T08:24:43.914Z,235
2017-02-27T08:25:43.907Z,235
2017-02-27T08:26:43.898Z,235
2017-02-27T08:27:44.150Z,235
2017-02-27T08:28:43.939Z,235
2017-02-27T08:29:43.490Z,200
2017-02-27T08:30:43.499Z,200
2017-02-27T08:31:43.865Z,200
2017-02-27T08:32:43.862Z,200
2017-02-27T08:33:43.849Z,200
2017-02-27T08:34:43.854Z,195
2017-02-27T08:35:43.866Z,195
2017-02-27T08:36:43.854Z,195
2017-02-27T08:37:43.831Z,195
2017-02-27T08:38:43.841Z,195
2017-02-27T08:39:43.830Z,200
2017-02-27T08:40:43.426Z,205
2017-02-27T08:41:43.806Z,205
2017-02-27T08:42:43.816Z,205
2017-02-27T08:43:43.790Z,205
2017-02-27T08:44:43.790Z,205
2017-02-27T08:45:43.383Z,205
2017-02-27T08:46:43.763Z,200
2017-02-27T08:47:43.758Z,200
2017-02-27T08:48:43.753Z,200
2017-02-27T08:49:43.764Z,200
2017-02-27T08:50:43.757Z,200
2017-02-27T08:51:43.728Z,200
2017-02-27T08:52:43.758Z,200
2017-02-27T08:53:43.713Z,200
2017-02-27T08:54:43.711Z,200
2017-02-27T08:55:43.332Z,200
2017-02-27T08:56:43.721Z,195
2017-02-27T08:57:43.700Z,195
2017-02-27T08:58:43.702Z,195
2017-02-27T08:59:43.675Z,195
2017-02-27T09:00:43.678Z,195
2017-02-27T09:01:43.299Z,195
2017-02-27T09:02:43.669Z,195
2017-02-27T09:03:43.664Z,195
2017-02-27T09:04:43.650Z,200
2017-02-27T09:05:43.636Z,200
2017-02-27T09:06:43.630Z,205
2017-02-27T09:07:43.643Z,230
2017-02-27T09:08:43.617Z,265
2017-02-27T09:09:43.653Z,270
2017-02-27T09:10:43.637Z,260
2017-02-27T09:11:43.221Z,250
2017-02-27T09:12:43.590Z,255
2017-02-27T09:13:43.216Z,245
2017-02-27T09:14:43.599Z,240
2017-02-27T09:15:43.580Z,235
2017-02-27T09:16:43.570Z,230
2017-02-27T09:17:43.207Z,225
2017-02-27T09:18:43.584Z,225
2017-02-27T09:19:43.564Z,220
2017-02-27T09:20:43.187Z,220
2017-02-27T09:21:43.597Z,210
2017-02-27T09:22:43.147Z,200
2017-02-27T09:23:43.548Z,195
2017-02-27T09:24:43.151Z,200
2017-02-27T09:25:43.566Z,210
2017-02-27T09:26:43.150Z,220
2017-02-27T09:27:43.844Z,210
2017-02-27T09:28:43.502Z,200
2017-02-27T09:29:43.121Z,195
2017-02-27T09:30:43.521Z,195
2017-02-27T09:31:43.115Z,195
2017-02-27T09:32:43.497Z,195
2017-02-27T09:33:43.125Z,190
2017-02-27T09:34:43.483Z,190
2017-02-27T09:35:43.505Z,185
2017-02-27T09:36:43.507Z,185
2017-02-27T09:37:43.475Z,185
2017-02-27T09:38:43.452Z,185
2017-02-27T09:39:43.483Z,185
2017-02-27T09:40:43.440Z,185
2017-02-27T09:41:43.440Z,185
2017-02-27T09:42:43.463Z,190
2017-02-27T09:43:43.455Z,190
2017-02-27T09:44:43.051Z,185
2017-02-27T09:45:43.025Z,185
2017-02-27T09:46:43.452Z,185
2017-02-27T09:47:43.398Z,185
2017-02-27T09:48:43.397Z,185
2017-02-27T09:49:43.415Z,185
2017-02-27T09:50:43.031Z,205
2017-02-27T09:51:43.382Z,230
2017-02-27T09:52:43.377Z,230
2017-02-27T09:53:43.411Z,220
2017-02-27T09:54:43.379Z,205
2017-02-27T09:55:43.365Z,215
2017-02-27T09:56:42.970Z,220
2017-02-27T09:57:42.976Z,215
2017-02-27T09:58:42.589Z,215
2017-02-27T09:59:42.186Z,230
2017-02-27T10:00:43.386Z,215
2017-02-27T10:01:43.344Z,220
2017-02-27T10:02:43.345Z,210
2017-02-27T10:03:43.359Z,205
2017-02-27T10:04:43.323Z,195
2017-02-27T10:05:43.307Z,190
2017-02-27T10:06:43.314Z,205
2017-02-27T10:07:43.329Z,205
2017-02-27T10:08:43.301Z,215
2017-02-27T10:09:43.312Z,210
2017-02-27T10:10:42.909Z,205
2017-02-27T10:11:43.313Z,200
2017-02-27T10:12:42.910Z,195
2017-02-27T10:13:43.284Z,200
2017-02-27T10:14:43.283Z,230
2017-02-27T10:15:43.288Z,225
2017-02-27T10:16:42.898Z,235
2017-02-27T10:17:43.278Z,245
2017-02-27T10:18:43.284Z,260
2017-02-27T10:19:43.270Z,285
2017-02-27T10:20:43.237Z,305
2017-02-27T10:21:43.234Z,285
2017-02-27T10:22:43.229Z,265
2017-02-27T10:23:43.220Z,235
2017-02-27T10:24:43.235Z,220
2017-02-27T10:25:43.214Z,205
2017-02-27T10:26:43.227Z,205
2017-02-27T10:27:43.204Z,200
2017-02-27T10:28:42.825Z,205
2017-02-27T10:29:42.834Z,210
2017-02-27T10:30:43.197Z,210
2017-02-27T10:31:43.211Z,220
2017-02-27T10:32:43.226Z,220
2017-02-27T10:33:42.789Z,210
2017-02-27T10:34:43.175Z,250
2017-02-27T10:35:43.185Z,295
2017-02-27T10:36:43.196Z,315
2017-02-27T10:37:43.179Z,325
2017-02-27T10:38:43.172Z,315
2017-02-27T10:39:43.167Z,295
2017-02-27T10:40:42.779Z,320
2017-02-27T10:41:43.154Z,335
2017-02-27T10:42:43.138Z,365
2017-02-27T10:43:43.158Z,370
2017-02-27T10:44:43.179Z,385
2017-02-27T10:45:43.133Z,380
2017-02-27T10:46:43.126Z,375
2017-02-27T10:47:42.749Z,395
2017-02-27T10:48:43.177Z,395
2017-02-27T10:49:42.733Z,370
2017-02-27T10:50:43.120Z,335
2017-02-27T10:51:43.135Z,300
2017-02-27T10:52:43.141Z,270
2017-02-27T10:53:42.737Z,240
2017-02-27T10:54:42.734Z,230
2017-02-27T10:55:43.105Z,255
2017-02-27T10:56:43.120Z,280
2017-02-27T10:57:42.726Z,320
2017-02-27T10:58:43.079Z,360
2017-02-27T10:59:43.122Z,365
2017-02-27T11:00:42.708Z,360
2017-02-27T11:01:42.690Z,360
2017-02-27T11:02:42.736Z,365
2017-02-27T11:03:43.068Z,365
2017-02-27T11:04:43.114Z,360
2017-02-27T11:05:43.081Z,350
2017-02-27T11:06:43.072Z,355
2017-02-27T11:07:42.306Z,355
2017-02-27T11:08:42.671Z,345
2017-02-27T11:09:43.087Z,355
2017-02-27T11:10:43.050Z,370
2017-02-27T11:11:43.061Z,365
2017-02-27T11:12:42.681Z,365
2017-02-27T11:13:42.658Z,345
2017-02-27T11:14:43.056Z,340
2017-02-27T11:15:43.050Z,350
2017-02-27T11:16:42.679Z,360
2017-02-27T11:17:43.046Z,370
2017-02-27T11:18:43.036Z,380
2017-02-27T11:19:42.635Z,375
2017-02-27T11:20:43.064Z,385
2017-02-27T11:21:43.032Z,385
2017-02-27T11:22:42.630Z,390
2017-02-27T11:23:43.024Z,395
2017-02-27T11:24:43.072Z,375
2017-02-27T11:25:43.022Z,315
2017-02-27T11:26:43.067Z,315
2017-02-27T11:27:43.018Z,320
2017-02-27T11:28:42.648Z,325
2017-02-27T11:29:42.998Z,335
2017-02-27T11:30:42.608Z,330
2017-02-27T11:31:43.020Z,345
2017-02-27T11:32:42.996Z,350
2017-02-27T11:33:43.007Z,365
2017-02-27T11:34:42.990Z,370
2017-02-27T11:35:43.004Z,395
2017-02-27T11:36:43.007Z,390
2017-02-27T11:37:43.031Z,390
2017-02-27T11:38:42.983Z,385
2017-02-27T11:39:42.978Z,375
2017-02-27T11:40:42.995Z,365
2017-02-27T11:41:42.998Z,330
2017-02-27T11:42:42.979Z,345
2017-02-27T11:43:42.997Z,365
2017-02-27T11:44:42.971Z,365
2017-02-27T11:45:42.961Z,350
2017-02-27T11:46:42.571Z,355
2017-02-27T11:47:42.970Z,325
2017-02-27T11:48:42.962Z,320
2017-02-27T11:49:42.962Z,325
2017-02-27T11:50:42.952Z,320
2017-02-27T11:51:42.586Z,320
2017-02-27T11:52:42.947Z,320
2017-02-27T11:53:42.947Z,305
2017-02-27T11:54:42.553Z,290
2017-02-27T11:55:42.569Z,290
2017-02-27T11:56:42.943Z,285
2017-02-27T11:57:42.543Z,275
2017-02-27T11:58:42.940Z,280
2017-02-27T11:59:42.556Z,295
2017-02-27T12:00:42.552Z,300
2017-02-27T12:01:42.568Z,300
2017-02-27T12:02:42.919Z,295
2017-02-27T12:03:42.533Z,300
2017-02-27T12:04:42.560Z,300
2017-02-27T12:05:42.934Z,300
2017-02-27T12:06:42.526Z,315
2017-02-27T12:07:42.540Z,310
2017-02-27T12:08:42.942Z,305
2017-02-27T12:09:42.911Z,305
2017-02-27T12:10:42.897Z,305
2017-02-27T12:11:42.541Z,310
2017-02-27T12:12:42.894Z,330
2017-02-27T12:13:42.907Z,345
2017-02-27T12:14:42.886Z,330
2017-02-27T12:15:42.883Z,330
2017-02-27T12:16:42.892Z,320
2017-02-27T12:17:42.890Z,330
2017-02-27T12:18:42.871Z,330
2017-02-27T12:19:42.878Z,335
2017-02-27T12:20:42.877Z,335
2017-02-27T12:21:42.895Z,335
2017-02-27T12:22:42.925Z,335
2017-02-27T12:23:42.910Z,335
2017-02-27T12:24:42.859Z,330
2017-02-27T12:25:42.862Z,330
2017-02-27T12:26:42.468Z,315
2017-02-27T12:27:42.873Z,310
2017-02-27T12:28:42.848Z,315
2017-02-27T12:29:42.877Z,315
2017-02-27T12:30:42.461Z,315
2017-02-27T12:31:42.837Z,310
2017-02-27T12:32:42.841Z,310
2017-02-27T12:33:42.833Z,310
2017-02-27T12:34:42.837Z,305
2017-02-27T12:35:42.832Z,305
2017-02-27T12:36:42.833Z,315
2017-02-27T12:37:42.862Z,310
2017-02-27T12:38:42.815Z,310
2017-02-27T12:39:42.819Z,315
2017-02-27T12:40:42.820Z,320
2017-02-27T12:41:42.825Z,325
2017-02-27T12:42:42.808Z,315
2017-02-27T12:43:42.823Z,300
2017-02-27T12:44:42.803Z,300
2017-02-27T12:45:42.836Z,280
2017-02-27T12:46:42.794Z,290
2017-02-27T12:47:42.803Z,285
2017-02-27T12:48:42.824Z,290
2017-02-27T12:49:42.821Z,300
2017-02-27T12:50:42.785Z,300
2017-02-27T12:51:42.781Z,295
2017-02-27T12:52:42.777Z,270
2017-02-27T12:53:42.412Z,260
2017-02-27T12:54:42.400Z,270
2017-02-27T12:55:42.801Z,280
2017-02-27T12:56:42.768Z,270
2017-02-27T12:57:42.406Z,265
2017-02-27T12:58:42.377Z,285
2017-02-27T12:59:42.767Z,280
2017-02-27T13:00:42.798Z,330
2017-02-27T13:01:42.759Z,330
2017-02-27T13:02:42.372Z,330
2017-02-27T13:03:42.767Z,320
2017-02-27T13:04:42.796Z,280
2017-02-27T13:05:42.750Z,270
2017-02-27T13:06:42.355Z,255
2017-02-27T13:07:42.740Z,230
2017-02-27T13:08:42.745Z,265
2017-02-27T13:09:42.358Z,285
2017-02-27T13:10:42.735Z,270
2017-02-27T13:11:42.732Z,230
2017-02-27T13:12:43.004Z,220
2017-02-27T13:13:42.729Z,230
2017-02-27T13:14:42.706Z,245
2017-02-27T13:15:42.709Z,260
2017-02-27T13:16:42.706Z,265
2017-02-27T13:17:42.711Z,265
2017-02-27T13:18:42.313Z,270
2017-02-27T13:19:42.708Z,280
2017-02-27T13:20:42.701Z,265
2017-02-27T13:21:42.700Z,260
2017-02-27T13:22:42.686Z,240
2017-02-27T13:23:42.738Z,225
2017-02-27T13:24:42.692Z,225
2017-02-27T13:25:42.697Z,235
2017-02-27T13:26:42.678Z,220
2017-02-27T13:27:42.678Z,215
2017-02-27T13:28:42.278Z,205
2017-02-27T13:29:42.652Z,205
2017-02-27T13:30:41.906Z,200
2017-02-27T13:31:42.654Z,200
2017-02-27T13:32:42.662Z,220
2017-02-27T13:33:42.678Z,230
2017-02-27T13:34:42.644Z,220
2017-02-27T13:35:42.649Z,210
2017-02-27T13:36:42.634Z,210
2017-02-27T13:37:42.637Z,200
2017-02-27T13:38:42.650Z,195
2017-02-27T13:39:42.245Z,195
2017-02-27T13:40:42.622Z,195
2017-02-27T13:41:42.604Z,195
2017-02-27T13:42:42.603Z,200
2017-02-27T13:43:42.606Z,195
2017-02-27T13:44:42.612Z,185
2017-02-27T13:45:42.599Z,195
2017-02-27T13:46:41.832Z,200
2017-02-27T13:47:42.591Z,200
2017-02-27T13:48:42.588Z,200
2017-02-27T13:49:42.189Z,185
2017-02-27T13:50:42.193Z,180
2017-02-27T13:51:42.599Z,175
2017-02-27T13:52:42.571Z,175
2017-02-27T13:53:42.601Z,175
2017-02-27T13:54:41.791Z,180
2017-02-27T13:55:42.594Z,175
2017-02-27T13:56:42.573Z,170
2017-02-27T13:57:42.182Z,170
2017-02-27T13:58:42.161Z,165
2017-02-27T13:59:41.770Z,165
2017-02-27T14:00:42.556Z,165
2017-02-27T14:01:42.528Z,160
2017-02-27T14:02:42.552Z,165
2017-02-27T14:03:42.758Z,165
2017-02-27T14:04:42.133Z,160
2017-02-27T14:05:42.132Z,160
2017-02-27T14:06:42.497Z,160
2017-02-27T14:07:42.505Z,160
2017-02-27T14:08:42.501Z,155
2017-02-27T14:09:42.487Z,160
2017-02-27T14:10:42.102Z,155
2017-02-27T14:11:42.489Z,155
2017-02-27T14:12:42.500Z,155
2017-02-27T14:13:42.467Z,155
2017-02-27T14:14:42.463Z,160
2017-02-27T14:15:42.458Z,155
2017-02-27T14:16:42.102Z,155
2017-02-27T14:17:42.439Z,155
2017-02-27T14:18:42.443Z,150
2017-02-27T14:19:42.443Z,150
2017-02-27T14:20:42.425Z,150
2017-02-27T14:21:42.419Z,150
2017-02-27T14:22:42.419Z,155
2017-02-27T14:23:42.417Z,150
2017-02-27T14:24:42.421Z,150
2017-02-27T14:25:42.394Z,150
2017-02-27T14:26:42.019Z,150
2017-02-27T14:27:42.385Z,150
2017-02-27T14:28:42.390Z,150